Time;durP1;ratioP1;P1;durP2;ratioP2;P2;SDS_P1;SDS_P2;PMS_P1;PMS_P2;Temp;Humidity;BMP_temperature;BMP_pressure;BME280_temperature;BME280_humidity;BME280_pressure;Samples;Min_cycle;Max_cycle;Signal;HPM_P1;HPM_P2
2022/11/02 00:01:41;;;;;;;6.57;1.63;;;13.90;99.90;;;;;;5034291;28;20202;-77
2022/11/02 00:04:09;;;;;;;6.10;1.88;;;13.90;99.90;;;;;;5028035;28;20199;-77
2022/11/02 00:06:36;;;;;;;4.80;2.03;;;13.90;99.90;;;;;;5032972;28;20680;-77
2022/11/02 00:09:04;;;;;;;6.13;2.35;;;13.90;99.90;;;;;;5041456;28;20195;-77
2022/11/02 00:11:31;;;;;;;5.93;1.80;;;13.90;99.90;;;;;;5063680;28;20194;-77
2022/11/02 00:14:00;;;;;;;5.80;1.95;;;13.90;99.90;;;;;;5034436;28;20573;-77
2022/11/02 00:16:28;;;;;;;8.32;2.00;;;14.00;99.90;;;;;;5036237;28;20581;-77
2022/11/02 00:18:58;;;;;;;7.13;1.98;;;14.00;99.90;;;;;;5037379;28;20653;-77
2022/11/02 00:21:27;;;;;;;4.47;1.67;;;14.00;99.90;;;;;;5046949;28;20198;-77
2022/11/02 00:23:56;;;;;;;11.85;2.72;;;14.00;99.90;;;;;;5061217;28;20206;-77
2022/11/02 00:26:24;;;;;;;5.28;1.60;;;14.00;99.90;;;;;;5057494;28;20213;-77
2022/11/02 00:28:52;;;;;;;8.63;1.50;;;14.00;99.90;;;;;;5065901;28;20217;-77
2022/11/02 00:31:21;;;;;;;10.07;1.95;;;14.10;99.90;;;;;;5040077;28;20201;-77
2022/11/02 00:33:51;;;;;;;7.47;2.03;;;14.10;99.90;;;;;;5052503;28;20305;-77
2022/11/02 00:36:19;;;;;;;5.50;1.38;;;14.10;99.90;;;;;;5054763;28;20218;-77
2022/11/02 00:38:46;;;;;;;7.95;2.00;;;14.10;99.90;;;;;;5054947;28;20217;-77
2022/11/02 00:41:15;;;;;;;9.48;2.10;;;14.10;99.90;;;;;;5045791;28;20671;-77
2022/11/02 00:43:42;;;;;;;6.55;1.55;;;14.20;99.90;;;;;;5054428;28;20193;-77
2022/11/02 00:46:09;;;;;;;5.72;1.50;;;14.20;99.90;;;;;;5037717;28;20229;-77
2022/11/02 00:48:38;;;;;;;12.90;2.97;;;14.20;99.90;;;;;;5042352;28;20202;-77
2022/11/02 00:51:06;;;;;;;7.47;1.65;;;14.20;99.90;;;;;;5052902;28;20194;-77
2022/11/02 00:53:33;;;;;;;5.15;1.60;;;14.20;99.90;;;;;;5022964;28;20591;-77
2022/11/02 00:56:01;;;;;;;6.82;1.98;;;14.20;99.90;;;;;;5017706;28;20219;-77
2022/11/02 00:58:32;;;;;;;6.13;1.30;;;14.20;99.90;;;;;;5033489;28;20190;-77
2022/11/02 01:01:05;;;;;;;5.45;1.70;;;14.30;99.90;;;;;;5053519;28;20209;-77
2022/11/02 01:03:32;;;;;;;4.13;1.92;;;14.20;99.90;;;;;;5050135;28;20194;-77
2022/11/02 01:06:08;;;;;;;9.07;1.95;;;14.20;99.90;;;;;;5043648;28;20586;-77
2022/11/02 01:08:35;;;;;;;7.18;2.03;;;14.20;99.90;;;;;;5057007;28;20197;-77
2022/11/02 01:11:13;;;;;;;7.45;1.95;;;14.20;99.90;;;;;;5045509;28;20203;-77
2022/11/02 01:13:40;;;;;;;6.95;2.00;;;14.20;99.90;;;;;;5030799;28;20220;-77
2022/11/02 01:16:08;;;;;;;6.78;2.15;;;14.20;99.90;;;;;;5062321;28;20226;-77
2022/11/02 01:18:36;;;;;;;7.05;2.72;;;14.10;99.90;;;;;;5049186;28;20186;-77
2022/11/02 01:21:05;;;;;;;6.18;2.25;;;14.10;99.90;;;;;;5066357;28;20671;-77
2022/11/02 01:23:33;;;;;;;9.50;2.63;;;14.20;99.90;;;;;;5040770;28;20652;-77
2022/11/02 01:26:03;;;;;;;7.45;2.15;;;14.20;99.90;;;;;;5026295;28;20222;-77
2022/11/02 01:28:31;;;;;;;10.60;2.08;;;14.10;99.90;;;;;;5042132;28;20212;-77
2022/11/02 01:30:58;;;;;;;5.38;1.73;;;14.10;99.90;;;;;;5038277;28;20204;-77
2022/11/02 01:33:26;;;;;;;7.22;2.65;;;14.10;99.90;;;;;;5062736;28;20217;-77
2022/11/02 01:35:55;;;;;;;9.75;2.60;;;14.10;99.90;;;;;;5049960;28;20205;-77
2022/11/02 01:38:25;;;;;;;6.00;1.92;;;14.10;99.90;;;;;;5036636;28;20202;-77
2022/11/02 01:40:53;;;;;;;5.25;1.50;;;14.10;99.90;;;;;;5031379;28;20202;-77
2022/11/02 01:43:22;;;;;;;11.85;1.77;;;14.10;99.90;;;;;;5017228;28;20195;-77
2022/11/02 01:45:58;;;;;;;3.75;1.88;;;14.00;99.90;;;;;;5016837;28;20199;-77
2022/11/02 01:48:31;;;;;;;4.60;2.10;;;14.00;99.90;;;;;;5036773;28;20201;-77
2022/11/02 01:51:01;;;;;;;5.13;1.67;;;14.00;99.90;;;;;;5046064;28;20269;-77
2022/11/02 01:53:31;;;;;;;5.88;2.00;;;14.00;99.90;;;;;;5016359;28;20215;-77
2022/11/02 01:55:59;;;;;;;8.52;1.77;;;14.00;99.90;;;;;;5016413;28;20227;-77
2022/11/02 01:58:27;;;;;;;5.55;1.73;;;14.00;99.90;;;;;;5056788;28;20197;-77
2022/11/02 02:00:55;;;;;;;6.40;1.92;;;14.00;99.90;;;;;;5030709;28;20687;-77
2022/11/02 02:03:23;;;;;;;4.15;2.10;;;14.00;99.90;;;;;;5052513;28;20559;-77
2022/11/02 02:05:54;;;;;;;4.55;1.88;;;14.00;99.90;;;;;;5049089;28;20540;-77
2022/11/02 02:08:24;;;;;;;5.93;2.22;;;14.00;99.90;;;;;;5036517;28;20692;-77
2022/11/02 02:10:56;;;;;;;8.55;1.98;;;14.00;99.90;;;;;;5030426;28;20569;-77
2022/11/02 02:13:25;;;;;;;7.47;1.90;;;14.00;99.90;;;;;;5038892;28;20214;-77
2022/11/02 02:19:49;;;;;;;6.75;2.15;;;14.00;99.90;;;;;;5068281;28;20165;-77
2022/11/02 02:22:42;;;;;;;8.88;2.38;;;14.00;99.90;;;;;;5050759;28;20194;-77
2022/11/02 02:25:26;;;;;;;9.05;1.90;;;14.00;99.90;;;;;;4993260;28;20198;-77
2022/11/02 02:28:12;;;;;;;9.27;1.90;;;14.00;99.90;;;;;;5041135;28;20221;-77
2022/11/02 02:30:45;;;;;;;6.00;2.05;;;14.00;99.90;;;;;;5059503;28;20189;-77
2022/11/02 02:33:17;;;;;;;7.55;2.05;;;14.00;99.90;;;;;;5062347;28;20209;-77
2022/11/02 02:35:49;;;;;;;7.20;2.10;;;14.00;99.90;;;;;;5029036;28;20219;-77
2022/11/02 02:38:25;;;;;;;6.55;2.80;;;13.90;99.90;;;;;;5015858;28;20206;-77
2022/11/02 02:40:59;;;;;;;7.60;1.65;;;13.90;99.90;;;;;;5022226;28;20198;-77
2022/11/02 02:43:34;;;;;;;10.38;2.03;;;13.90;99.90;;;;;;5039415;28;20202;-77
2022/11/02 02:46:08;;;;;;;7.85;2.30;;;13.90;99.90;;;;;;5047759;28;20213;-77
2022/11/02 02:48:37;;;;;;;10.98;2.25;;;13.90;99.90;;;;;;5060068;28;20201;-77
2022/11/02 02:51:07;;;;;;;6.88;2.17;;;13.80;99.90;;;;;;5020856;28;20207;-77
2022/11/02 02:53:39;;;;;;;9.15;2.50;;;13.80;99.90;;;;;;5026195;28;20215;-77
2022/11/02 02:56:10;;;;;;;10.85;2.35;;;13.80;99.90;;;;;;5035616;28;20211;-77
2022/11/02 02:58:47;;;;;;;8.93;1.90;;;13.80;99.90;;;;;;5043160;28;20202;-77
2022/11/02 03:01:16;;;;;;;9.00;2.60;;;13.80;99.90;;;;;;5043110;28;20202;-77
2022/11/02 03:03:45;;;;;;;9.55;1.90;;;13.70;99.90;;;;;;5039257;28;20682;-77
2022/11/02 03:06:17;;;;;;;8.13;2.38;;;13.70;99.90;;;;;;5034304;28;20249;-77
2022/11/02 03:08:59;;;;;;;7.05;2.08;;;13.70;99.90;;;;;;5033724;28;20191;-77
2022/11/02 03:11:28;;;;;;;5.18;2.20;;;13.70;99.90;;;;;;5022599;28;20199;-77
2022/11/02 03:14:09;;;;;;;6.63;2.15;;;13.70;99.90;;;;;;5036221;28;20225;-77
2022/11/02 03:16:49;;;;;;;9.70;1.90;;;13.70;99.90;;;;;;5031007;28;20221;-77
2022/11/02 03:19:24;;;;;;;5.20;1.90;;;13.70;99.90;;;;;;5046940;28;20667;-77
2022/11/02 03:22:00;;;;;;;8.95;2.60;;;13.70;99.90;;;;;;5038783;28;20426;-77
2022/11/02 03:24:33;;;;;;;8.65;2.75;;;13.70;99.90;;;;;;5037413;28;20194;-77
2022/11/02 03:27:14;;;;;;;6.82;2.10;;;13.70;99.90;;;;;;5027679;28;20690;-77
2022/11/02 03:29:52;;;;;;;6.18;1.98;;;13.80;99.90;;;;;;5043504;28;20572;-77
2022/11/02 03:32:24;;;;;;;7.15;2.05;;;13.70;99.90;;;;;;5040390;28;20201;-77
2022/11/02 03:34:57;;;;;;;8.10;1.98;;;13.70;99.90;;;;;;5071141;28;20206;-77
2022/11/02 03:37:29;;;;;;;7.18;2.00;;;13.80;99.90;;;;;;5022990;28;20237;-77
2022/11/02 03:40:03;;;;;;;9.20;2.00;;;13.80;99.90;;;;;;5040232;28;20210;-77
2022/11/02 03:42:33;;;;;;;5.75;2.65;;;13.70;99.90;;;;;;5039800;28;20552;-77
2022/11/02 03:45:09;;;;;;;5.53;1.80;;;13.80;99.90;;;;;;5044101;28;20210;-76
2022/11/02 03:47:39;;;;;;;8.52;2.15;;;13.80;99.90;;;;;;5039570;28;20217;-78
2022/11/02 03:50:14;;;;;;;8.27;2.00;;;13.70;99.90;;;;;;5036780;28;20201;-76
2022/11/02 03:52:45;;;;;;;5.20;2.15;;;13.80;99.90;;;;;;5053418;28;20199;-76
2022/11/02 03:55:19;;;;;;;7.35;2.33;;;13.70;99.90;;;;;;5042549;28;20215;-76
2022/11/02 03:57:48;;;;;;;5.65;2.20;;;13.70;99.90;;;;;;5050797;28;20217;-76
2022/11/02 04:00:22;;;;;;;5.95;2.05;;;13.70;99.90;;;;;;5042096;28;20210;-77
2022/11/02 04:03:02;;;;;;;4.50;2.08;;;13.70;99.90;;;;;;5049519;28;20202;-77
2022/11/02 04:05:34;;;;;;;8.25;2.10;;;13.70;99.90;;;;;;5022396;28;20194;-77
2022/11/02 04:08:21;;;;;;;7.43;2.17;;;13.70;99.90;;;;;;5028373;28;20572;-76
2022/11/02 04:16:27;;;;;;;8.77;2.15;;;13.60;99.90;;;;;;5034140;28;20213;-76
2022/11/02 04:25:14;;;;;;;7.57;1.92;;;13.60;99.90;;;;;;5045637;28;20582;-76
2022/11/02 04:27:16;;;;;;;9.65;2.50;;;13.60;99.90;;;;;;5049469;28;20213;-76
2022/11/02 04:29:44;;;;;;;4.90;2.00;;;13.50;99.90;;;;;;5030688;28;20700;-76
2022/11/02 04:32:13;;;;;;;8.00;2.65;;;13.60;99.90;;;;;;5028888;28;20199;-76
2022/11/02 04:34:39;;;;;;;2.58;1.73;;;13.50;99.90;;;;;;5051194;28;20206;-76
2022/11/02 04:38:39;;;;;;;8.57;2.22;;;13.50;99.90;;;;;;5030484;28;20214;-76
2022/11/02 04:40:02;;;;;;;8.15;2.38;;;13.50;99.90;;;;;;5038386;28;20590;-76
2022/11/02 04:42:34;;;;;;;5.82;2.08;;;13.50;99.90;;;;;;5025191;28;20199;-76
2022/11/02 04:45:02;;;;;;;4.13;1.85;;;13.50;99.90;;;;;;5033929;28;20190;-76
2022/11/02 04:47:32;;;;;;;5.95;1.88;;;13.50;99.90;;;;;;5038606;28;20214;-76
2022/11/02 04:49:59;;;;;;;8.88;2.55;;;13.50;99.90;;;;;;5031839;28;20202;-76
2022/11/02 04:52:27;;;;;;;6.68;2.17;;;13.50;99.90;;;;;;5024712;28;20194;-76
2022/11/02 04:54:54;;;;;;;4.68;1.90;;;13.50;99.90;;;;;;5036333;28;20895;-76
2022/11/02 04:57:25;;;;;;;7.78;2.22;;;13.40;99.90;;;;;;5045673;28;20217;-76
2022/11/02 04:59:54;;;;;;;5.97;1.73;;;13.50;99.90;;;;;;5037839;28;20198;-76
2022/11/02 05:02:21;;;;;;;6.30;2.20;;;13.50;99.90;;;;;;5036828;28;20564;-76
2022/11/02 05:04:50;;;;;;;7.18;2.30;;;13.50;99.90;;;;;;5033214;28;20194;-76
2022/11/02 05:07:18;;;;;;;6.22;1.75;;;13.50;99.90;;;;;;5046354;28;20214;-76
2022/11/02 05:09:46;;;;;;;5.88;1.58;;;13.50;99.90;;;;;;5044448;28;20206;-76
2022/11/02 05:12:14;;;;;;;6.30;1.40;;;13.50;99.90;;;;;;5041599;28;20205;-76
2022/11/02 05:14:42;;;;;;;6.10;1.75;;;13.50;99.90;;;;;;5036083;28;20569;-76
2022/11/02 05:17:10;;;;;;;5.15;1.85;;;13.50;99.90;;;;;;5039191;28;20214;-76
2022/11/02 05:19:38;;;;;;;7.88;2.10;;;13.50;99.90;;;;;;5044155;28;20198;-76
2022/11/02 05:22:08;;;;;;;9.05;2.20;;;13.50;99.90;;;;;;5043093;28;20195;-76
2022/11/02 05:24:35;;;;;;;8.20;2.28;;;13.50;99.90;;;;;;5055085;28;20195;-76
2022/11/02 05:27:04;;;;;;;7.40;2.03;;;13.50;99.90;;;;;;5046743;28;20218;-76
2022/11/02 05:29:35;;;;;;;6.75;1.95;;;13.50;99.90;;;;;;5044407;28;20198;-76
2022/11/02 05:32:02;;;;;;;6.05;1.90;;;13.40;99.90;;;;;;5047381;28;20198;-76
2022/11/02 05:34:30;;;;;;;3.90;2.17;;;13.40;99.90;;;;;;5050326;28;20194;-76
2022/11/02 05:36:58;;;;;;;7.47;1.70;;;13.50;99.90;;;;;;5036415;28;20214;-76
2022/11/02 05:39:27;;;;;;;6.53;1.58;;;13.40;99.90;;;;;;5039354;28;20684;-76
2022/11/02 05:41:54;;;;;;;9.07;1.77;;;13.40;99.90;;;;;;5034227;28;20207;-76
2022/11/02 05:44:22;;;;;;;4.25;1.27;;;13.40;99.90;;;;;;5046556;28;20202;-76
2022/11/02 05:46:49;;;;;;;4.55;1.48;;;13.40;99.90;;;;;;5039631;28;20253;-76
2022/11/02 05:49:17;;;;;;;7.10;1.95;;;13.40;99.90;;;;;;5042035;28;20213;-76
2022/11/02 05:51:44;;;;;;;8.43;1.98;;;13.40;99.90;;;;;;5051020;28;20207;-76
2022/11/02 05:54:12;;;;;;;6.40;1.67;;;13.40;99.90;;;;;;5056922;28;20203;-76
2022/11/02 05:56:41;;;;;;;7.57;1.35;;;13.30;99.90;;;;;;5057219;28;20229;-76
2022/11/02 05:59:09;;;;;;;7.47;1.65;;;13.30;99.90;;;;;;5032549;28;20201;-76
2022/11/02 06:01:36;;;;;;;5.32;1.75;;;13.30;99.90;;;;;;5065739;28;20193;-79
2022/11/02 06:04:04;;;;;;;6.32;1.98;;;13.30;99.90;;;;;;5040349;28;20198;-79
2022/11/02 06:06:31;;;;;;;10.63;2.25;;;13.30;99.90;;;;;;5037485;28;20226;-79
2022/11/02 06:08:59;;;;;;;5.60;1.52;;;13.30;99.90;;;;;;5051571;28;20193;-79
2022/11/02 06:11:26;;;;;;;10.55;1.90;;;13.30;99.90;;;;;;5025814;28;20199;-79
2022/11/02 06:13:55;;;;;;;5.35;1.70;;;13.20;99.90;;;;;;5047012;28;20645;-79
2022/11/02 06:16:22;;;;;;;8.52;1.60;;;13.20;99.90;;;;;;5052922;28;20214;-78
2022/11/02 06:18:50;;;;;;;8.30;1.80;;;13.20;99.90;;;;;;5037019;28;20206;-79
2022/11/02 06:21:18;;;;;;;6.32;1.95;;;13.20;99.90;;;;;;5066508;28;20205;-77
2022/11/02 06:23:47;;;;;;;6.70;1.75;;;13.20;99.90;;;;;;5050429;28;20205;-78
2022/11/02 06:26:14;;;;;;;7.78;1.80;;;13.10;99.90;;;;;;5055078;28;20210;-79
2022/11/02 06:28:42;;;;;;;13.45;2.38;;;13.10;99.90;;;;;;5056700;28;20194;-79
2022/11/02 06:31:16;;;;;;;8.50;1.88;;;13.10;99.90;;;;;;5029984;28;20239;-79
2022/11/02 06:33:44;;;;;;;5.85;1.88;;;13.10;99.90;;;;;;5035229;28;20214;-79
2022/11/02 06:36:11;;;;;;;8.43;1.92;;;13.10;99.90;;;;;;5045758;28;20241;-79
2022/11/02 06:38:40;;;;;;;6.80;2.13;;;13.10;99.90;;;;;;5051258;28;20201;-79
2022/11/02 06:41:08;;;;;;;7.45;1.73;;;13.10;99.90;;;;;;5069784;28;20185;-79
2022/11/02 06:43:44;;;;;;;2.90;1.40;;;13.10;99.90;;;;;;5052369;28;20209;-79
2022/11/02 06:46:13;;;;;;;9.80;1.83;;;13.10;99.90;;;;;;5029075;28;20218;-79
2022/11/02 06:48:41;;;;;;;4.57;1.30;;;13.00;99.90;;;;;;5040404;28;20206;-79
2022/11/02 06:51:08;;;;;;;8.27;1.83;;;13.10;99.90;;;;;;5049244;28;20204;-79
2022/11/02 06:53:35;;;;;;;6.85;2.10;;;13.10;99.90;;;;;;5041470;28;20202;-79
2022/11/02 06:56:03;;;;;;;5.97;1.63;;;13.10;99.90;;;;;;5049356;28;20217;-79
2022/11/02 06:58:32;;;;;;;7.85;1.98;;;13.00;99.90;;;;;;5038146;28;20565;-79
2022/11/02 07:01:00;;;;;;;5.68;1.60;;;13.10;99.90;;;;;;5039216;28;20205;-79
2022/11/02 07:03:45;;;;;;;5.05;1.80;;;13.10;99.90;;;;;;5062933;28;20201;-79
2022/11/02 07:06:13;;;;;;;4.63;1.48;;;13.00;99.90;;;;;;5045618;28;20217;-78
2022/11/02 07:08:41;;;;;;;8.73;2.00;;;13.10;99.90;;;;;;5056300;28;20198;-79
2022/11/02 07:11:12;;;;;;;6.75;2.00;;;13.00;99.90;;;;;;5036558;28;20203;-79
2022/11/02 07:13:39;;;;;;;8.05;1.90;;;13.00;99.90;;;;;;5030486;28;20198;-78
2022/11/02 07:16:07;;;;;;;4.00;1.33;;;13.00;99.90;;;;;;5035871;28;20249;-78
2022/11/02 07:18:34;;;;;;;8.15;2.45;;;13.10;99.90;;;;;;5038573;28;20191;-77
2022/11/02 07:21:10;;;;;;;7.90;1.67;;;13.00;99.90;;;;;;5036418;28;20961;-79
2022/11/02 07:23:47;;;;;;;6.60;1.52;;;13.00;99.90;;;;;;5034617;28;20199;-79
2022/11/02 07:26:14;;;;;;;6.95;1.90;;;13.00;99.90;;;;;;5034921;28;20227;-79
2022/11/02 07:28:47;;;;;;;5.22;1.70;;;13.00;99.90;;;;;;5027436;28;20198;-79
2022/11/02 07:31:14;;;;;;;6.35;1.38;;;13.00;99.90;;;;;;5044151;28;20202;-78
2022/11/02 07:33:42;;;;;;;5.72;1.92;;;13.10;99.90;;;;;;5044680;28;20190;-78
2022/11/02 07:36:11;;;;;;;11.50;2.35;;;13.00;99.90;;;;;;5042095;28;20233;-78
2022/11/02 07:38:39;;;;;;;8.40;1.60;;;13.00;99.90;;;;;;5018668;28;20234;-78
2022/11/02 07:41:07;;;;;;;5.30;1.60;;;13.00;99.90;;;;;;5022094;28;20615;-78
2022/11/02 07:43:34;;;;;;;6.70;2.25;;;13.00;99.90;;;;;;5022558;28;20205;-78
2022/11/02 07:46:16;;;;;;;7.30;2.13;;;13.00;99.90;;;;;;5044985;28;20213;-78
2022/11/02 07:48:43;;;;;;;7.28;1.90;;;13.10;99.90;;;;;;5027015;28;20198;-78
2022/11/02 07:51:12;;;;;;;10.55;2.03;;;13.00;99.90;;;;;;5034877;28;20210;-80
2022/11/02 07:53:39;;;;;;;5.85;1.98;;;13.10;99.90;;;;;;5032786;28;20194;-78
2022/11/02 07:56:07;;;;;;;8.77;1.98;;;13.10;99.90;;;;;;5043439;28;20211;-77
2022/11/02 07:58:35;;;;;;;9.75;1.90;;;13.00;99.90;;;;;;5032402;28;20210;-78
2022/11/02 08:01:02;;;;;;;5.05;1.77;;;13.10;99.90;;;;;;5029922;28;20198;-77
2022/11/02 08:03:39;;;;;;;6.32;2.10;;;13.20;99.90;;;;;;5049018;28;20668;-78
2022/11/02 08:06:07;;;;;;;6.35;2.10;;;13.10;99.90;;;;;;5029933;28;20214;-77
2022/11/02 08:08:36;;;;;;;10.63;2.03;;;13.10;99.90;;;;;;5032260;28;20198;-78
2022/11/02 08:11:06;;;;;;;6.68;1.83;;;13.00;99.90;;;;;;5033182;28;20201;-77
2022/11/02 08:13:34;;;;;;;6.68;2.13;;;13.00;99.90;;;;;;5033092;28;20201;-78
2022/11/02 08:16:02;;;;;;;8.90;1.90;;;13.00;99.90;;;;;;5031160;28;20564;-77
2022/11/02 08:18:31;;;;;;;10.73;1.92;;;13.10;99.90;;;;;;5020689;28;20194;-77
2022/11/02 08:20:59;;;;;;;5.53;1.92;;;13.10;99.90;;;;;;5028704;28;20628;-78
2022/11/02 08:23:27;;;;;;;7.50;2.08;;;13.20;99.90;;;;;;5040280;28;20193;-78
2022/11/02 08:25:58;;;;;;;8.02;1.85;;;13.30;99.90;;;;;;5043793;28;20202;-78
2022/11/02 08:28:29;;;;;;;8.82;1.92;;;13.40;99.90;;;;;;5051925;28;20191;-78
2022/11/02 08:30:58;;;;;;;5.85;1.90;;;13.40;99.90;;;;;;5054611;28;20694;-78
2022/11/02 08:33:25;;;;;;;9.75;1.95;;;13.30;99.90;;;;;;5071089;28;20207;-77
2022/11/02 08:35:53;;;;;;;6.25;1.98;;;13.30;99.90;;;;;;5060137;28;20209;-77
2022/11/02 08:38:21;;;;;;;10.60;2.40;;;13.30;99.90;;;;;;5055275;28;20213;-77
2022/11/02 08:40:58;;;;;;;6.22;1.60;;;13.40;99.90;;;;;;5039443;28;20202;-78
2022/11/02 08:43:26;;;;;;;7.28;2.22;;;13.40;99.90;;;;;;5066729;28;20190;-77
2022/11/02 08:45:56;;;;;;;5.90;1.77;;;13.40;99.90;;;;;;5055922;28;20202;-78
2022/11/02 08:48:24;;;;;;;8.23;2.58;;;13.30;99.90;;;;;;5018622;28;20201;-77
2022/11/02 08:50:51;;;;;;;5.15;1.70;;;13.40;99.90;;;;;;5042899;28;20205;-77
2022/11/02 08:53:19;;;;;;;5.55;1.75;;;13.30;99.90;;;;;;5043919;28;20753;-77
2022/11/02 08:55:48;;;;;;;7.60;1.83;;;13.50;99.90;;;;;;5029154;28;20568;-78
2022/11/02 08:58:19;;;;;;;6.53;1.95;;;13.30;99.90;;;;;;5029868;28;20207;-77
2022/11/02 09:00:46;;;;;;;5.38;2.13;;;13.30;99.90;;;;;;5046647;28;20196;-77
2022/11/02 09:03:25;;;;;;;7.20;1.73;;;13.40;99.90;;;;;;5048289;28;20183;-78
2022/11/02 09:05:58;;;;;;;6.45;1.85;;;13.50;99.90;;;;;;5044704;28;20615;-78
2022/11/02 09:08:28;;;;;;;5.50;2.35;;;13.50;99.90;;;;;;5033934;28;20209;-77
2022/11/02 09:10:59;;;;;;;8.25;2.05;;;13.50;99.90;;;;;;5025824;28;20575;-77
2022/11/02 09:13:28;;;;;;;7.57;1.70;;;13.40;99.90;;;;;;5054389;28;20198;-78
2022/11/02 09:15:58;;;;;;;8.70;2.00;;;13.40;99.90;;;;;;5027400;28;20235;-78
2022/11/02 09:18:25;;;;;;;6.22;1.83;;;13.50;99.90;;;;;;5038134;28;20221;-77
2022/11/02 09:20:53;;;;;;;5.72;1.88;;;13.40;99.90;;;;;;5056142;28;20198;-77
2022/11/02 09:23:22;;;;;;;6.68;2.15;;;13.40;99.90;;;;;;5038270;28;20205;-77
2022/11/02 09:25:49;;;;;;;7.25;1.88;;;13.30;99.90;;;;;;5031650;28;20222;-77
2022/11/02 09:28:17;;;;;;;3.75;2.33;;;13.40;99.90;;;;;;5049285;28;20203;-77
2022/11/02 09:30:46;;;;;;;7.93;1.90;;;13.30;99.90;;;;;;5031369;28;20211;-77
2022/11/02 09:33:13;;;;;;;7.72;1.63;;;13.30;99.90;;;;;;5036142;28;20202;-76
2022/11/02 09:35:44;;;;;;;5.60;1.70;;;13.40;99.90;;;;;;5040400;28;20190;-78
2022/11/02 09:38:13;;;;;;;4.43;1.58;;;13.40;99.90;;;;;;5031802;28;20223;-78
2022/11/02 09:40:43;;;;;;;9.93;1.70;;;13.50;99.90;;;;;;5027646;28;20221;-78
2022/11/02 09:43:19;;;;;;;5.03;1.80;;;13.60;99.90;;;;;;5043883;28;20191;-78
2022/11/02 09:45:55;;;;;;;8.15;1.90;;;13.80;99.90;;;;;;5023734;28;20199;-78
2022/11/02 09:48:28;;;;;;;7.15;2.35;;;13.90;99.90;;;;;;5028062;28;20225;-78
2022/11/02 09:51:01;;;;;;;6.18;1.80;;;14.10;99.90;;;;;;5034569;28;20214;-78
2022/11/02 09:53:36;;;;;;;7.45;2.00;;;14.10;99.90;;;;;;5049712;28;20645;-78
2022/11/02 09:56:05;;;;;;;5.78;2.15;;;14.00;99.90;;;;;;5056678;28;20218;-78
2022/11/02 09:58:37;;;;;;;5.70;1.70;;;13.80;99.90;;;;;;5037398;28;20217;-77
2022/11/02 10:01:19;;;;;;;7.45;2.03;;;13.80;99.80;;;;;;5033288;28;20201;-78
2022/11/02 10:04:08;;;;;;;6.32;1.80;;;13.80;99.90;;;;;;5027543;28;20194;-78
2022/11/02 10:06:37;;;;;;;9.77;2.75;;;13.90;99.40;;;;;;5033168;28;20218;-80
2022/11/02 10:09:12;;;;;;;6.30;2.22;;;13.90;99.40;;;;;;5033108;28;20198;-80
2022/11/02 10:11:47;;;;;;;3.55;1.50;;;14.00;98.40;;;;;;5031168;28;20217;-80
2022/11/02 10:14:19;;;;;;;5.32;1.48;;;14.00;98.20;;;;;;5035305;28;20205;-79
2022/11/02 10:16:57;;;;;;;6.05;2.00;;;14.10;98.20;;;;;;5043524;28;20226;-80
2022/11/02 10:19:46;;;;;;;8.13;1.90;;;14.20;97.70;;;;;;5052722;28;20186;-79
2022/11/02 10:22:15;;;;;;;4.97;1.65;;;14.20;98.00;;;;;;5039204;28;20194;-80
2022/11/02 10:24:45;;;;;;;7.70;1.73;;;14.20;98.00;;;;;;5058070;28;20209;-79
2022/11/02 10:27:18;;;;;;;5.45;1.70;;;14.40;98.40;;;;;;5035568;28;20226;-80
2022/11/02 10:29:54;;;;;;;7.25;1.92;;;14.60;98.40;;;;;;5030519;28;20202;-79
2022/11/02 10:32:24;;;;;;;7.30;2.45;;;14.60;98.30;;;;;;5037340;28;20198;-79
2022/11/02 10:34:53;;;;;;;7.30;2.92;;;14.70;98.60;;;;;;5026104;28;20206;-79
2022/11/02 10:37:40;;;;;;;5.22;2.00;;;14.90;98.80;;;;;;5032571;28;20234;-79
2022/11/02 10:40:20;;;;;;;5.75;2.58;;;15.10;98.00;;;;;;5025523;28;20699;-79
2022/11/02 10:42:59;;;;;;;6.28;2.25;;;15.00;98.00;;;;;;5033252;28;20209;-79
2022/11/02 10:45:56;;;;;;;6.38;2.28;;;15.10;98.00;;;;;;5028376;28;20198;-79
2022/11/02 10:48:38;;;;;;;8.80;2.20;;;15.20;97.00;;;;;;5048902;28;20185;-78
2022/11/02 10:51:09;;;;;;;6.70;1.75;;;15.00;96.30;;;;;;5051625;28;20198;-79
2022/11/02 10:53:42;;;;;;;5.30;1.85;;;14.90;96.90;;;;;;5038620;28;20202;-79
2022/11/02 10:56:17;;;;;;;8.98;1.88;;;15.10;96.30;;;;;;5045703;28;20224;-79
2022/11/02 10:58:50;;;;;;;5.95;1.73;;;15.40;94.20;;;;;;5030624;28;20264;-80
2022/11/02 11:01:18;;;;;;;6.85;2.17;;;15.70;92.30;;;;;;5048556;28;20195;-79
2022/11/02 11:03:56;;;;;;;8.45;1.70;;;15.80;92.30;;;;;;5035415;28;20210;-81
2022/11/02 11:06:25;;;;;;;9.85;2.25;;;16.00;92.70;;;;;;5051613;28;20217;-80
2022/11/02 11:08:59;;;;;;;6.80;1.73;;;15.70;92.90;;;;;;5034601;28;20190;-80
2022/11/02 11:11:30;;;;;;;7.22;2.10;;;15.80;93.00;;;;;;5032148;28;20236;-81
2022/11/02 11:14:00;;;;;;;4.88;1.80;;;15.60;93.30;;;;;;5035334;28;20774;-80
2022/11/02 11:16:40;;;;;;;6.40;1.70;;;15.60;92.60;;;;;;5026293;28;20222;-79
2022/11/02 11:19:19;;;;;;;9.25;2.40;;;15.50;92.60;;;;;;5045341;28;20218;-79
2022/11/02 11:21:49;;;;;;;5.72;2.38;;;15.30;92.50;;;;;;5044343;28;20199;-80
2022/11/02 11:24:24;;;;;;;7.22;2.50;;;15.20;92.80;;;;;;5038958;28;20553;-80
2022/11/02 11:27:04;;;;;;;6.07;1.60;;;15.30;92.60;;;;;;5046824;28;20224;-81
2022/11/02 11:29:36;;;;;;;5.20;1.80;;;15.40;91.70;;;;;;5027816;28;20202;-81
2022/11/02 11:32:04;;;;;;;6.78;1.70;;;15.30;91.30;;;;;;5019950;28;20213;-82
2022/11/02 11:38:54;;;;;;;6.68;1.75;;;15.50;90.20;;;;;;5044361;28;20225;-82
2022/11/02 11:41:24;;;;;;;5.80;1.60;;;16.00;88.40;;;;;;5025336;28;20582;-82
2022/11/02 11:43:53;;;;;;;8.05;2.15;;;16.50;86.60;;;;;;5042955;28;20217;-82
2022/11/02 11:46:22;;;;;;;4.75;2.00;;;16.80;84.60;;;;;;5033720;28;20226;-82
2022/11/02 11:48:59;;;;;;;5.95;1.70;;;16.90;82.40;;;;;;5023655;28;20194;-81
2022/11/02 11:51:38;;;;;;;5.85;1.88;;;16.50;82.50;;;;;;5022250;28;20205;-84
2022/11/02 11:54:18;;;;;;;6.18;1.58;;;16.30;81.60;;;;;;5027497;28;20203;-82
2022/11/02 11:56:46;;;;;;;8.50;2.35;;;16.00;83.10;;;;;;5024449;28;20553;-82
2022/11/02 11:59:45;;;;;;;5.18;1.90;;;16.00;82.50;;;;;;5026776;28;20234;-82
2022/11/02 12:02:23;;;;;;;6.07;1.48;;;15.70;82.80;;;;;;5026540;28;20202;-82
2022/11/02 12:04:51;;;;;;;4.45;1.50;;;16.20;82.60;;;;;;5033766;28;20786;-82
2022/11/02 12:07:42;;;;;;;5.50;1.48;;;16.50;80.50;;;;;;5030214;28;20219;-83
2022/11/02 12:10:16;;;;;;;5.65;1.95;;;16.60;81.70;;;;;;5028703;28;20209;-82
2022/11/02 12:13:04;;;;;;;4.82;1.33;;;17.00;80.10;;;;;;5024068;28;20201;-82
2022/11/02 12:18:39;;;;;;;4.22;1.70;;;17.10;76.20;;;;;;5064351;28;20213;-81
2022/11/02 12:21:26;;;;;;;3.22;1.33;;;16.80;76.10;;;;;;5067940;28;20194;-82
2022/11/02 12:24:18;;;;;;;4.97;1.60;;;16.90;77.00;;;;;;5062476;28;20202;-81
2022/11/02 12:43:57;;;;;;;4.43;1.08;;;16.90;76.40;;;;;;5081697;22;20221;-79
2022/11/02 12:46:36;;;;;;;3.80;1.33;;;17.10;75.80;;;;;;5056923;28;20208;-79
2022/11/02 12:49:20;;;;;;;5.20;1.40;;;17.10;73.90;;;;;;5065322;28;20193;-79
2022/11/02 12:51:56;;;;;;;5.13;1.33;;;16.60;75.20;;;;;;5069572;28;20193;-79
2022/11/02 12:54:28;;;;;;;6.40;1.42;;;16.20;77.10;;;;;;5056961;28;20217;-79
2022/11/02 12:56:56;;;;;;;6.00;1.90;;;16.30;78.30;;;;;;5059298;28;20205;-79
2022/11/02 12:59:25;;;;;;;5.70;1.42;;;16.50;78.40;;;;;;5066030;28;20221;-79
2022/11/02 13:01:58;;;;;;;5.95;1.30;;;16.40;79.60;;;;;;5056959;28;20203;-79
2022/11/02 13:04:28;;;;;;;4.43;1.75;;;16.40;79.10;;;;;;5056474;28;20228;-79
2022/11/02 13:07:01;;;;;;;3.88;1.60;;;16.30;79.30;;;;;;5056458;28;20205;-79
2022/11/02 13:09:32;;;;;;;5.68;1.60;;;17.10;79.10;;;;;;5057577;28;20198;-79
2022/11/02 13:12:04;;;;;;;4.53;1.17;;;18.00;76.20;;;;;;5076561;28;20212;-78
2022/11/02 13:14:39;;;;;;;4.68;1.98;;;18.00;75.30;;;;;;5081810;28;20189;-79
2022/11/02 13:17:15;;;;;;;5.53;1.60;;;17.90;75.80;;;;;;5061897;28;20201;-79
2022/11/02 13:19:47;;;;;;;4.75;1.75;;;17.50;77.00;;;;;;5062045;28;20228;-78
2022/11/02 13:22:18;;;;;;;6.10;2.17;;;17.60;77.30;;;;;;5065882;28;20647;-79
2022/11/02 13:24:48;;;;;;;7.63;1.52;;;17.60;77.60;;;;;;5066716;28;20206;-79
2022/11/02 13:27:26;;;;;;;10.55;2.10;;;17.50;78.50;;;;;;5064945;28;20220;-79
2022/11/02 13:29:58;;;;;;;6.22;1.95;;;17.20;79.00;;;;;;5080571;28;20186;-78
2022/11/02 13:32:32;;;;;;;7.88;1.75;;;18.00;77.10;;;;;;5063989;28;20217;-79
2022/11/02 13:35:05;;;;;;;5.25;1.60;;;17.70;76.60;;;;;;5062509;28;20204;-79
2022/11/02 13:37:39;;;;;;;5.85;1.48;;;17.10;76.20;;;;;;5068432;28;20209;-77
2022/11/02 13:40:15;;;;;;;3.40;1.25;;;16.50;77.90;;;;;;5079920;28;20214;-78
2022/11/02 13:43:15;;;;;;;7.13;1.75;;;16.40;77.50;;;;;;5062492;28;20224;-79
2022/11/02 13:45:59;;;;;;;6.25;1.50;;;16.70;76.30;;;;;;5047593;28;20202;-79
2022/11/02 13:48:50;;;;;;;8.57;1.90;;;17.90;75.70;;;;;;5061865;28;20200;-79